sensor_id;sensor_type;location;lat;lon;timestamp;temperature;humidity
75010;DHT22;63564;46.840;18.336;2023-04-15T00:00:39;6.06;96.85
75010;DHT22;63564;46.840;18.336;2023-04-15T00:03:40;5.93;97.05
75010;DHT22;63564;46.840;18.336;2023-04-15T00:06:41;5.77;97.96
75010;DHT22;63564;46.840;18.336;2023-04-15T00:09:41;5.70;97.79
75010;DHT22;63564;46.840;18.336;2023-04-15T00:12:42;5.62;97.99
75010;DHT22;63564;46.840;18.336;2023-04-15T00:15:42;5.55;98.29
75010;DHT22;63564;46.840;18.336;2023-04-15T00:18:42;5.50;98.43
75010;DHT22;63564;46.840;18.336;2023-04-15T00:21:43;5.42;98.73
75010;DHT22;63564;46.840;18.336;2023-04-15T00:24:43;5.48;98.41
75010;DHT22;63564;46.840;18.336;2023-04-15T00:27:44;5.40;98.23
75010;DHT22;63564;46.840;18.336;2023-04-15T00:30:44;5.40;99.11
75010;DHT22;63564;46.840;18.336;2023-04-15T00:33:45;5.38;99.32
75010;DHT22;63564;46.840;18.336;2023-04-15T00:36:45;5.29;99.30
75010;DHT22;63564;46.840;18.336;2023-04-15T00:39:46;5.25;99.32
75010;DHT22;63564;46.840;18.336;2023-04-15T00:42:46;5.24;99.43
75010;DHT22;63564;46.840;18.336;2023-04-15T00:45:47;5.25;99.51
75010;DHT22;63564;46.840;18.336;2023-04-15T00:48:47;5.11;99.11
75010;DHT22;63564;46.840;18.336;2023-04-15T00:51:48;4.98;98.94
75010;DHT22;63564;46.840;18.336;2023-04-15T00:54:48;4.94;99.55
75010;DHT22;63564;46.840;18.336;2023-04-15T00:57:50;4.97;99.62
75010;DHT22;63564;46.840;18.336;2023-04-15T01:00:51;4.95;99.54
75010;DHT22;63564;46.840;18.336;2023-04-15T01:03:55;4.88;99.37
75010;DHT22;63564;46.840;18.336;2023-04-15T01:06:57;4.93;99.02
75010;DHT22;63564;46.840;18.336;2023-04-15T01:09:58;4.81;98.99
75010;DHT22;63564;46.840;18.336;2023-04-15T01:12:59;4.84;99.26
75010;DHT22;63564;46.840;18.336;2023-04-15T01:15:59;4.95;98.88
75010;DHT22;63564;46.840;18.336;2023-04-15T01:19:01;4.88;98.34
75010;DHT22;63564;46.840;18.336;2023-04-15T01:22:02;4.69;98.96
75010;DHT22;63564;46.840;18.336;2023-04-15T01:25:16;4.50;99.00
75010;DHT22;63564;46.840;18.336;2023-04-15T01:28:17;4.43;98.99
75010;DHT22;63564;46.840;18.336;2023-04-15T01:31:17;4.42;99.27
75010;DHT22;63564;46.840;18.336;2023-04-15T01:34:18;4.39;99.62
75010;DHT22;63564;46.840;18.336;2023-04-15T01:37:18;4.41;99.82
75010;DHT22;63564;46.840;18.336;2023-04-15T01:40:19;4.39;99.99
75010;DHT22;63564;46.840;18.336;2023-04-15T01:43:20;4.50;99.99
75010;DHT22;63564;46.840;18.336;2023-04-15T01:46:21;4.66;99.99
75010;DHT22;63564;46.840;18.336;2023-04-15T01:49:22;4.93;99.99
75010;DHT22;63564;46.840;18.336;2023-04-15T01:52:22;5.08;99.83
75010;DHT22;63564;46.840;18.336;2023-04-15T01:55:22;5.21;99.47
75010;DHT22;63564;46.840;18.336;2023-04-15T01:58:23;5.32;99.12
75010;DHT22;63564;46.840;18.336;2023-04-15T02:01:24;5.42;99.14
75010;DHT22;63564;46.840;18.336;2023-04-15T02:04:24;5.59;98.83
75010;DHT22;63564;46.840;18.336;2023-04-15T02:07:25;5.70;98.68
75010;DHT22;63564;46.840;18.336;2023-04-15T02:10:28;5.74;98.19
75010;DHT22;63564;46.840;18.336;2023-04-15T02:13:28;5.85;98.40
75010;DHT22;63564;46.840;18.336;2023-04-15T02:16:29;5.81;98.41
75010;DHT22;63564;46.840;18.336;2023-04-15T02:19:29;5.91;98.02
75010;DHT22;63564;46.840;18.336;2023-04-15T02:22:30;5.94;97.52
75010;DHT22;63564;46.840;18.336;2023-04-15T02:25:30;5.94;97.27
75010;DHT22;63564;46.840;18.336;2023-04-15T02:28:31;6.03;97.24
75010;DHT22;63564;46.840;18.336;2023-04-15T02:31:31;6.00;97.12
75010;DHT22;63564;46.840;18.336;2023-04-15T02:34:36;5.96;96.87
75010;DHT22;63564;46.840;18.336;2023-04-15T02:37:38;5.96;97.31
75010;DHT22;63564;46.840;18.336;2023-04-15T02:40:44;5.98;96.80
75010;DHT22;63564;46.840;18.336;2023-04-15T02:43:45;5.90;97.22
75010;DHT22;63564;46.840;18.336;2023-04-15T02:46:46;5.85;97.04
75010;DHT22;63564;46.840;18.336;2023-04-15T02:49:51;5.79;97.34
75010;DHT22;63564;46.840;18.336;2023-04-15T02:52:51;5.80;97.37
75010;DHT22;63564;46.840;18.336;2023-04-15T02:55:51;5.83;96.63
75010;DHT22;63564;46.840;18.336;2023-04-15T02:58:52;5.76;97.45
75010;DHT22;63564;46.840;18.336;2023-04-15T03:01:55;5.81;97.00
75010;DHT22;63564;46.840;18.336;2023-04-15T03:04:59;5.83;96.87
75010;DHT22;63564;46.840;18.336;2023-04-15T03:08:00;5.81;97.29
75010;DHT22;63564;46.840;18.336;2023-04-15T03:11:02;5.86;97.24
75010;DHT22;63564;46.840;18.336;2023-04-15T03:14:03;5.87;97.79
75010;DHT22;63564;46.840;18.336;2023-04-15T03:17:03;5.98;97.31
75010;DHT22;63564;46.840;18.336;2023-04-15T03:20:05;6.07;97.03
75010;DHT22;63564;46.840;18.336;2023-04-15T03:23:05;6.13;97.03
75010;DHT22;63564;46.840;18.336;2023-04-15T03:26:06;6.04;97.26
75010;DHT22;63564;46.840;18.336;2023-04-15T03:29:06;6.10;97.30
75010;DHT22;63564;46.840;18.336;2023-04-15T03:32:06;6.11;97.15
75010;DHT22;63564;46.840;18.336;2023-04-15T03:35:07;6.17;96.98
75010;DHT22;63564;46.840;18.336;2023-04-15T03:38:07;6.22;96.64
75010;DHT22;63564;46.840;18.336;2023-04-15T03:41:08;6.21;96.78
75010;DHT22;63564;46.840;18.336;2023-04-15T03:44:08;6.26;96.31
75010;DHT22;63564;46.840;18.336;2023-04-15T03:47:09;6.25;96.19
75010;DHT22;63564;46.840;18.336;2023-04-15T03:50:10;6.10;96.93
75010;DHT22;63564;46.840;18.336;2023-04-15T03:53:10;6.08;96.79
75010;DHT22;63564;46.840;18.336;2023-04-15T03:56:11;6.07;96.96
75010;DHT22;63564;46.840;18.336;2023-04-15T03:59:11;6.07;97.33
75010;DHT22;63564;46.840;18.336;2023-04-15T04:02:11;6.17;96.83
75010;DHT22;63564;46.840;18.336;2023-04-15T04:05:12;6.25;96.36
75010;DHT22;63564;46.840;18.336;2023-04-15T04:08:12;6.21;97.07
75010;DHT22;63564;46.840;18.336;2023-04-15T04:11:13;6.26;96.66
75010;DHT22;63564;46.840;18.336;2023-04-15T04:14:13;6.31;96.78
75010;DHT22;63564;46.840;18.336;2023-04-15T04:17:14;6.28;96.64
75010;DHT22;63564;46.840;18.336;2023-04-15T04:20:14;6.39;96.30
75010;DHT22;63564;46.840;18.336;2023-04-15T04:23:15;6.49;95.67
75010;DHT22;63564;46.840;18.336;2023-04-15T04:26:15;6.57;95.32
75010;DHT22;63564;46.840;18.336;2023-04-15T04:29:16;6.56;95.34
75010;DHT22;63564;46.840;18.336;2023-04-15T04:32:16;6.56;95.78
75010;DHT22;63564;46.840;18.336;2023-04-15T04:35:16;6.52;95.75
75010;DHT22;63564;46.840;18.336;2023-04-15T04:38:17;6.63;95.16
75010;DHT22;63564;46.840;18.336;2023-04-15T04:41:17;6.63;95.26
75010;DHT22;63564;46.840;18.336;2023-04-15T04:44:17;6.63;95.40
75010;DHT22;63564;46.840;18.336;2023-04-15T04:47:18;6.68;95.15
75010;DHT22;63564;46.840;18.336;2023-04-15T04:50:18;6.68;95.10
75010;DHT22;63564;46.840;18.336;2023-04-15T04:53:19;6.62;95.70
75010;DHT22;63564;46.840;18.336;2023-04-15T04:56:19;6.72;94.94
75010;DHT22;63564;46.840;18.336;2023-04-15T04:59:20;6.61;95.97
75010;DHT22;63564;46.840;18.336;2023-04-15T05:02:20;6.61;95.69
75010;DHT22;63564;46.840;18.336;2023-04-15T05:05:21;6.53;96.02
75010;DHT22;63564;46.840;18.336;2023-04-15T05:08:21;6.57;96.17
75010;DHT22;63564;46.840;18.336;2023-04-15T05:11:22;6.55;96.46
75010;DHT22;63564;46.840;18.336;2023-04-15T05:14:22;6.53;97.23
75010;DHT22;63564;46.840;18.336;2023-04-15T05:17:22;6.50;97.20
75010;DHT22;63564;46.840;18.336;2023-04-15T05:20:23;6.61;96.46
75010;DHT22;63564;46.840;18.336;2023-04-15T05:23:24;6.63;96.45
75010;DHT22;63564;46.840;18.336;2023-04-15T05:26:24;6.62;97.27
75010;DHT22;63564;46.840;18.336;2023-04-15T05:29:26;6.62;97.50
75010;DHT22;63564;46.840;18.336;2023-04-15T05:32:26;6.69;97.24
75010;DHT22;63564;46.840;18.336;2023-04-15T05:35:27;6.75;97.20
75010;DHT22;63564;46.840;18.336;2023-04-15T05:38:27;6.86;97.03
75010;DHT22;63564;46.840;18.336;2023-04-15T05:41:28;6.86;96.63
75010;DHT22;63564;46.840;18.336;2023-04-15T05:44:28;7.07;95.82
75010;DHT22;63564;46.840;18.336;2023-04-15T05:47:28;7.08;96.15
75010;DHT22;63564;46.840;18.336;2023-04-15T05:50:29;7.11;96.04
75010;DHT22;63564;46.840;18.336;2023-04-15T05:53:29;7.08;96.13
75010;DHT22;63564;46.840;18.336;2023-04-15T05:56:30;7.15;96.04
75010;DHT22;63564;46.840;18.336;2023-04-15T05:59:30;7.10;96.81
75010;DHT22;63564;46.840;18.336;2023-04-15T06:02:31;7.03;97.19
75010;DHT22;63564;46.840;18.336;2023-04-15T06:05:31;7.10;97.08
75010;DHT22;63564;46.840;18.336;2023-04-15T06:08:32;7.15;96.25
75010;DHT22;63564;46.840;18.336;2023-04-15T06:11:32;7.27;96.55
75010;DHT22;63564;46.840;18.336;2023-04-15T06:14:33;7.27;96.62
75010;DHT22;63564;46.840;18.336;2023-04-15T06:17:33;7.28;96.54
75010;DHT22;63564;46.840;18.336;2023-04-15T06:20:33;7.45;95.27
75010;DHT22;63564;46.840;18.336;2023-04-15T06:23:34;7.48;95.98
75010;DHT22;63564;46.840;18.336;2023-04-15T06:26:40;7.63;95.46
75010;DHT22;63564;46.840;18.336;2023-04-15T06:29:40;7.77;95.05
75010;DHT22;63564;46.840;18.336;2023-04-15T06:32:41;7.75;94.25
75010;DHT22;63564;46.840;18.336;2023-04-15T06:35:41;7.68;94.83
75010;DHT22;63564;46.840;18.336;2023-04-15T06:38:42;7.65;94.78
75010;DHT22;63564;46.840;18.336;2023-04-15T06:41:42;7.75;94.55
75010;DHT22;63564;46.840;18.336;2023-04-15T06:44:43;7.80;94.05
75010;DHT22;63564;46.840;18.336;2023-04-15T06:47:43;7.77;94.58
75010;DHT22;63564;46.840;18.336;2023-04-15T06:50:43;7.83;93.87
75010;DHT22;63564;46.840;18.336;2023-04-15T06:53:44;7.87;93.37
75010;DHT22;63564;46.840;18.336;2023-04-15T06:56:44;8.01;93.47
75010;DHT22;63564;46.840;18.336;2023-04-15T06:59:45;7.85;94.14
75010;DHT22;63564;46.840;18.336;2023-04-15T07:02:46;7.91;93.98
75010;DHT22;63564;46.840;18.336;2023-04-15T07:05:46;8.04;93.42
75010;DHT22;63564;46.840;18.336;2023-04-15T07:08:47;8.06;93.90
75010;DHT22;63564;46.840;18.336;2023-04-15T07:11:48;7.97;94.19
75010;DHT22;63564;46.840;18.336;2023-04-15T07:14:49;7.96;94.23
75010;DHT22;63564;46.840;18.336;2023-04-15T07:17:49;7.91;94.82
75010;DHT22;63564;46.840;18.336;2023-04-15T07:20:50;7.96;94.96
75010;DHT22;63564;46.840;18.336;2023-04-15T07:23:51;8.10;93.59
75010;DHT22;63564;46.840;18.336;2023-04-15T07:26:53;8.18;94.51
75010;DHT22;63564;46.840;18.336;2023-04-15T07:29:54;8.33;94.06
75010;DHT22;63564;46.840;18.336;2023-04-15T07:32:54;8.18;94.25
75010;DHT22;63564;46.840;18.336;2023-04-15T07:35:55;8.24;93.66
75010;DHT22;63564;46.840;18.336;2023-04-15T07:38:55;8.33;93.35
75010;DHT22;63564;46.840;18.336;2023-04-15T07:41:56;8.49;93.53
75010;DHT22;63564;46.840;18.336;2023-04-15T07:44:58;8.46;93.41
75010;DHT22;63564;46.840;18.336;2023-04-15T07:47:58;8.35;92.83
75010;DHT22;63564;46.840;18.336;2023-04-15T07:50:59;8.24;93.41
75010;DHT22;63564;46.840;18.336;2023-04-15T07:53:59;8.21;93.84
75010;DHT22;63564;46.840;18.336;2023-04-15T07:57:00;8.33;93.97
75010;DHT22;63564;46.840;18.336;2023-04-15T08:00:00;8.54;93.06
75010;DHT22;63564;46.840;18.336;2023-04-15T08:03:02;8.61;93.30
75010;DHT22;63564;46.840;18.336;2023-04-15T08:06:03;8.51;92.28
75010;DHT22;63564;46.840;18.336;2023-04-15T08:09:03;8.40;93.42
75010;DHT22;63564;46.840;18.336;2023-04-15T08:12:04;8.42;93.47
75010;DHT22;63564;46.840;18.336;2023-04-15T08:15:05;8.48;93.39
75010;DHT22;63564;46.840;18.336;2023-04-15T08:18:08;8.55;92.98
75010;DHT22;63564;46.840;18.336;2023-04-15T08:21:09;8.66;93.76
75010;DHT22;63564;46.840;18.336;2023-04-15T08:24:09;8.66;93.37
75010;DHT22;63564;46.840;18.336;2023-04-15T08:27:10;8.69;94.53
75010;DHT22;63564;46.840;18.336;2023-04-15T08:30:11;8.68;93.85
75010;DHT22;63564;46.840;18.336;2023-04-15T08:33:12;8.77;93.34
75010;DHT22;63564;46.840;18.336;2023-04-15T08:36:12;8.97;92.99
75010;DHT22;63564;46.840;18.336;2023-04-15T08:39:13;8.90;93.20
75010;DHT22;63564;46.840;18.336;2023-04-15T08:42:16;9.24;91.42
75010;DHT22;63564;46.840;18.336;2023-04-15T08:45:17;9.21;91.63
75010;DHT22;63564;46.840;18.336;2023-04-15T08:48:18;9.17;91.76
75010;DHT22;63564;46.840;18.336;2023-04-15T08:51:19;9.16;90.49
75010;DHT22;63564;46.840;18.336;2023-04-15T08:54:19;9.09;92.27
75010;DHT22;63564;46.840;18.336;2023-04-15T08:57:20;9.16;92.17
75010;DHT22;63564;46.840;18.336;2023-04-15T09:00:21;8.96;93.47
75010;DHT22;63564;46.840;18.336;2023-04-15T09:03:22;8.96;91.74
75010;DHT22;63564;46.840;18.336;2023-04-15T09:06:24;9.11;91.68
75010;DHT22;63564;46.840;18.336;2023-04-15T09:09:26;9.17;91.61
75010;DHT22;63564;46.840;18.336;2023-04-15T09:12:26;9.17;92.22
75010;DHT22;63564;46.840;18.336;2023-04-15T09:15:27;9.38;91.07
75010;DHT22;63564;46.840;18.336;2023-04-15T09:18:30;9.38;91.37
75010;DHT22;63564;46.840;18.336;2023-04-15T09:21:31;9.27;92.23
75010;DHT22;63564;46.840;18.336;2023-04-15T09:24:36;9.49;90.69
75010;DHT22;63564;46.840;18.336;2023-04-15T09:27:47;9.54;91.14
75010;DHT22;63564;46.840;18.336;2023-04-15T09:30:50;9.42;91.61
75010;DHT22;63564;46.840;18.336;2023-04-15T09:33:54;9.37;92.33
75010;DHT22;63564;46.840;18.336;2023-04-15T09:36:57;9.30;91.45
75010;DHT22;63564;46.840;18.336;2023-04-15T09:39:58;9.47;91.80
75010;DHT22;63564;46.840;18.336;2023-04-15T09:42:59;9.59;89.93
75010;DHT22;63564;46.840;18.336;2023-04-15T09:46:01;9.69;88.89
75010;DHT22;63564;46.840;18.336;2023-04-15T09:49:08;9.83;87.11
75010;DHT22;63564;46.840;18.336;2023-04-15T09:52:12;10.09;87.51
75010;DHT22;63564;46.840;18.336;2023-04-15T09:55:13;10.27;86.68
75010;DHT22;63564;46.840;18.336;2023-04-15T09:58:22;10.16;85.73
75010;DHT22;63564;46.840;18.336;2023-04-15T10:01:23;10.00;86.23
75010;DHT22;63564;46.840;18.336;2023-04-15T10:04:24;10.00;86.11
75010;DHT22;63564;46.840;18.336;2023-04-15T10:07:25;9.97;87.49
75010;DHT22;63564;46.840;18.336;2023-04-15T10:10:26;10.16;88.42
75010;DHT22;63564;46.840;18.336;2023-04-15T10:13:29;10.33;86.56
75010;DHT22;63564;46.840;18.336;2023-04-15T10:16:32;10.25;86.71
75010;DHT22;63564;46.840;18.336;2023-04-15T10:19:36;10.38;86.36
75010;DHT22;63564;46.840;18.336;2023-04-15T10:22:37;10.51;85.63
75010;DHT22;63564;46.840;18.336;2023-04-15T10:25:38;11.03;82.66
75010;DHT22;63564;46.840;18.336;2023-04-15T10:28:39;10.61;85.76
75010;DHT22;63564;46.840;18.336;2023-04-15T10:31:40;10.83;85.30
75010;DHT22;63564;46.840;18.336;2023-04-15T10:34:40;10.71;85.32
75010;DHT22;63564;46.840;18.336;2023-04-15T10:37:41;11.08;83.15
75010;DHT22;63564;46.840;18.336;2023-04-15T10:40:42;11.06;82.55
75010;DHT22;63564;46.840;18.336;2023-04-15T10:43:55;10.69;83.11
75010;DHT22;63564;46.840;18.336;2023-04-15T10:47:00;10.98;83.29
75010;DHT22;63564;46.840;18.336;2023-04-15T10:50:01;11.44;80.97
75010;DHT22;63564;46.840;18.336;2023-04-15T10:53:02;11.48;83.57
75010;DHT22;63564;46.840;18.336;2023-04-15T10:56:04;11.02;82.10
75010;DHT22;63564;46.840;18.336;2023-04-15T10:59:04;10.86;83.95
75010;DHT22;63564;46.840;18.336;2023-04-15T11:02:06;11.10;83.56
75010;DHT22;63564;46.840;18.336;2023-04-15T11:05:07;11.34;81.83
75010;DHT22;63564;46.840;18.336;2023-04-15T11:08:08;11.53;80.29
75010;DHT22;63564;46.840;18.336;2023-04-15T11:11:09;11.20;81.55
75010;DHT22;63564;46.840;18.336;2023-04-15T11:14:14;11.40;78.66
75010;DHT22;63564;46.840;18.336;2023-04-15T11:17:27;12.13;77.77
75010;DHT22;63564;46.840;18.336;2023-04-15T11:20:31;12.44;77.30
75010;DHT22;63564;46.840;18.336;2023-04-15T11:23:37;12.13;78.27
75010;DHT22;63564;46.840;18.336;2023-04-15T11:26:37;11.60;79.33
75010;DHT22;63564;46.840;18.336;2023-04-15T11:29:39;11.41;79.04
75010;DHT22;63564;46.840;18.336;2023-04-15T11:32:42;11.38;78.13
75010;DHT22;63564;46.840;18.336;2023-04-15T11:35:43;12.47;74.99
75010;DHT22;63564;46.840;18.336;2023-04-15T11:38:45;13.04;73.02
75010;DHT22;63564;46.840;18.336;2023-04-15T11:41:46;12.74;73.93
75010;DHT22;63564;46.840;18.336;2023-04-15T11:44:46;12.09;76.92
75010;DHT22;63564;46.840;18.336;2023-04-15T11:47:47;12.37;71.87
75010;DHT22;63564;46.840;18.336;2023-04-15T11:50:56;12.13;73.72
75010;DHT22;63564;46.840;18.336;2023-04-15T11:53:57;11.92;75.69
75010;DHT22;63564;46.840;18.336;2023-04-15T11:56:57;12.33;73.83
75010;DHT22;63564;46.840;18.336;2023-04-15T11:59:59;12.32;73.04
75010;DHT22;63564;46.840;18.336;2023-04-15T12:09:21;11.99;73.90
75010;DHT22;63564;46.840;18.336;2023-04-15T12:12:26;12.05;72.57
75010;DHT22;63564;46.840;18.336;2023-04-15T12:15:26;12.02;74.96
75010;DHT22;63564;46.840;18.336;2023-04-15T12:18:27;12.20;75.04
75010;DHT22;63564;46.840;18.336;2023-04-15T12:21:33;12.12;74.37
75010;DHT22;63564;46.840;18.336;2023-04-15T12:24:35;12.59;73.51
75010;DHT22;63564;46.840;18.336;2023-04-15T12:27:36;12.85;74.72
75010;DHT22;63564;46.840;18.336;2023-04-15T12:30:47;14.33;69.79
75010;DHT22;63564;46.840;18.336;2023-04-15T12:33:49;14.24;67.27
75010;DHT22;63564;46.840;18.336;2023-04-15T12:36:49;13.52;68.17
75010;DHT22;63564;46.840;18.336;2023-04-15T12:39:50;13.80;65.74
75010;DHT22;63564;46.840;18.336;2023-04-15T12:42:51;14.32;64.60
75010;DHT22;63564;46.840;18.336;2023-04-15T12:45:52;13.88;65.37
75010;DHT22;63564;46.840;18.336;2023-04-15T12:48:52;13.46;66.95
75010;DHT22;63564;46.840;18.336;2023-04-15T12:51:55;13.27;66.60
75010;DHT22;63564;46.840;18.336;2023-04-15T12:54:56;13.32;66.94
75010;DHT22;63564;46.840;18.336;2023-04-15T12:57:56;12.91;70.42
75010;DHT22;63564;46.840;18.336;2023-04-15T13:00:57;13.33;70.97
75010;DHT22;63564;46.840;18.336;2023-04-15T13:03:57;13.36;70.96
75010;DHT22;63564;46.840;18.336;2023-04-15T13:06:58;13.63;70.35
75010;DHT22;63564;46.840;18.336;2023-04-15T13:09:58;13.66;69.38
75010;DHT22;63564;46.840;18.336;2023-04-15T13:12:58;13.47;67.65
75010;DHT22;63564;46.840;18.336;2023-04-15T13:15:59;13.33;68.55
75010;DHT22;63564;46.840;18.336;2023-04-15T13:19:00;13.44;69.53
75010;DHT22;63564;46.840;18.336;2023-04-15T13:22:01;13.63;70.65
75010;DHT22;63564;46.840;18.336;2023-04-15T13:25:01;14.12;70.02
75010;DHT22;63564;46.840;18.336;2023-04-15T13:28:02;14.66;65.29
75010;DHT22;63564;46.840;18.336;2023-04-15T13:31:04;14.14;63.63
75010;DHT22;63564;46.840;18.336;2023-04-15T13:34:04;13.53;66.08
75010;DHT22;63564;46.840;18.336;2023-04-15T13:37:06;13.06;68.41
75010;DHT22;63564;46.840;18.336;2023-04-15T13:40:07;12.78;71.02
75010;DHT22;63564;46.840;18.336;2023-04-15T13:43:08;11.23;78.42
75010;DHT22;63564;46.840;18.336;2023-04-15T13:46:08;9.66;89.39
75010;DHT22;63564;46.840;18.336;2023-04-15T13:49:08;9.03;93.47
75010;DHT22;63564;46.840;18.336;2023-04-15T13:52:10;8.80;94.59
75010;DHT22;63564;46.840;18.336;2023-04-15T13:55:10;8.63;94.96
75010;DHT22;63564;46.840;18.336;2023-04-15T13:58:10;8.40;94.99
75010;DHT22;63564;46.840;18.336;2023-04-15T14:01:11;8.35;95.11
75010;DHT22;63564;46.840;18.336;2023-04-15T14:04:12;8.35;95.56
75010;DHT22;63564;46.840;18.336;2023-04-15T14:07:12;8.38;96.15
75010;DHT22;63564;46.840;18.336;2023-04-15T14:10:13;8.33;94.96
75010;DHT22;63564;46.840;18.336;2023-04-15T14:13:13;8.34;95.74
75010;DHT22;63564;46.840;18.336;2023-04-15T14:16:14;8.44;96.34
75010;DHT22;63564;46.840;18.336;2023-04-15T14:19:14;8.58;95.10
75010;DHT22;63564;46.840;18.336;2023-04-15T14:22:15;8.62;94.76
75010;DHT22;63564;46.840;18.336;2023-04-15T14:25:17;8.62;93.67
75010;DHT22;63564;46.840;18.336;2023-04-15T14:28:18;8.80;94.26
75010;DHT22;63564;46.840;18.336;2023-04-15T14:31:18;8.71;94.17
75010;DHT22;63564;46.840;18.336;2023-04-15T14:34:19;8.90;95.43
75010;DHT22;63564;46.840;18.336;2023-04-15T14:37:21;9.00;94.92
75010;DHT22;63564;46.840;18.336;2023-04-15T14:40:21;9.11;94.73
75010;DHT22;63564;46.840;18.336;2023-04-15T14:43:22;9.19;93.87
75010;DHT22;63564;46.840;18.336;2023-04-15T14:46:22;9.17;93.21
75010;DHT22;63564;46.840;18.336;2023-04-15T14:49:23;8.92;93.50
75010;DHT22;63564;46.840;18.336;2023-04-15T14:52:23;9.17;94.79
75010;DHT22;63564;46.840;18.336;2023-04-15T14:55:24;9.00;90.06
75010;DHT22;63564;46.840;18.336;2023-04-15T14:58:24;9.01;91.62
75010;DHT22;63564;46.840;18.336;2023-04-15T15:01:25;8.90;91.94
75010;DHT22;63564;46.840;18.336;2023-04-15T15:04:25;8.84;91.51
75010;DHT22;63564;46.840;18.336;2023-04-15T15:07:27;8.99;93.84
75010;DHT22;63564;46.840;18.336;2023-04-15T15:10:27;8.99;93.43
75010;DHT22;63564;46.840;18.336;2023-04-15T15:13:28;9.14;93.22
75010;DHT22;63564;46.840;18.336;2023-04-15T15:16:28;9.14;93.68
75010;DHT22;63564;46.840;18.336;2023-04-15T15:19:29;9.10;94.38
75010;DHT22;63564;46.840;18.336;2023-04-15T15:22:29;9.20;94.23
75010;DHT22;63564;46.840;18.336;2023-04-15T15:25:29;9.24;94.00
75010;DHT22;63564;46.840;18.336;2023-04-15T15:28:30;9.09;93.87
75010;DHT22;63564;46.840;18.336;2023-04-15T15:31:30;9.11;94.07
75010;DHT22;63564;46.840;18.336;2023-04-15T15:34:31;9.04;94.66
75010;DHT22;63564;46.840;18.336;2023-04-15T15:37:31;8.99;94.66
75010;DHT22;63564;46.840;18.336;2023-04-15T15:40:32;9.04;94.49
75010;DHT22;63564;46.840;18.336;2023-04-15T15:43:32;8.90;93.84
75010;DHT22;63564;46.840;18.336;2023-04-15T15:46:33;8.87;94.57
75010;DHT22;63564;46.840;18.336;2023-04-15T15:49:33;8.90;94.53
75010;DHT22;63564;46.840;18.336;2023-04-15T15:52:33;8.90;95.40
75010;DHT22;63564;46.840;18.336;2023-04-15T15:55:34;8.96;94.89
75010;DHT22;63564;46.840;18.336;2023-04-15T15:58:34;9.06;94.88
75010;DHT22;63564;46.840;18.336;2023-04-15T16:01:35;9.03;94.18
75010;DHT22;63564;46.840;18.336;2023-04-15T16:04:36;9.23;93.91
75010;DHT22;63564;46.840;18.336;2023-04-15T16:07:37;9.39;93.51
75010;DHT22;63564;46.840;18.336;2023-04-15T16:10:37;9.24;92.81
75010;DHT22;63564;46.840;18.336;2023-04-15T16:13:38;9.20;93.28
75010;DHT22;63564;46.840;18.336;2023-04-15T16:16:38;9.20;94.83
75010;DHT22;63564;46.840;18.336;2023-04-15T16:19:39;9.26;94.67
75010;DHT22;63564;46.840;18.336;2023-04-15T16:22:40;9.28;94.06
75010;DHT22;63564;46.840;18.336;2023-04-15T16:25:42;9.14;93.94
75010;DHT22;63564;46.840;18.336;2023-04-15T16:28:42;9.16;94.87
75010;DHT22;63564;46.840;18.336;2023-04-15T16:31:43;9.00;95.77
75010;DHT22;63564;46.840;18.336;2023-04-15T16:34:43;9.14;95.38
75010;DHT22;63564;46.840;18.336;2023-04-15T16:37:44;9.17;93.60
75010;DHT22;63564;46.840;18.336;2023-04-15T16:40:45;9.04;93.30
75010;DHT22;63564;46.840;18.336;2023-04-15T16:43:45;9.04;93.53
75010;DHT22;63564;46.840;18.336;2023-04-15T16:46:45;8.97;93.56
75010;DHT22;63564;46.840;18.336;2023-04-15T16:49:46;8.90;93.76
75010;DHT22;63564;46.840;18.336;2023-04-15T16:52:47;8.86;93.49
75010;DHT22;63564;46.840;18.336;2023-04-15T16:55:47;8.73;94.39
75010;DHT22;63564;46.840;18.336;2023-04-15T16:58:47;8.73;94.91
75010;DHT22;63564;46.840;18.336;2023-04-15T17:01:48;8.66;95.10
75010;DHT22;63564;46.840;18.336;2023-04-15T17:04:48;8.48;96.36
75010;DHT22;63564;46.840;18.336;2023-04-15T17:07:49;8.40;96.56
75010;DHT22;63564;46.840;18.336;2023-04-15T17:10:49;8.42;96.07
75010;DHT22;63564;46.840;18.336;2023-04-15T17:13:50;8.38;96.27
75010;DHT22;63564;46.840;18.336;2023-04-15T17:16:51;8.44;95.60
75010;DHT22;63564;46.840;18.336;2023-04-15T17:19:51;8.42;95.04
75010;DHT22;63564;46.840;18.336;2023-04-15T17:22:52;8.35;94.06
75010;DHT22;63564;46.840;18.336;2023-04-15T17:25:52;8.24;95.88
75010;DHT22;63564;46.840;18.336;2023-04-15T17:28:53;8.25;95.01
75010;DHT22;63564;46.840;18.336;2023-04-15T17:31:53;8.18;95.52
75010;DHT22;63564;46.840;18.336;2023-04-15T17:34:54;8.11;95.81
75010;DHT22;63564;46.840;18.336;2023-04-15T17:37:55;8.14;95.56
75010;DHT22;63564;46.840;18.336;2023-04-15T17:40:55;8.15;96.01
75010;DHT22;63564;46.840;18.336;2023-04-15T17:43:56;8.06;96.28
75010;DHT22;63564;46.840;18.336;2023-04-15T17:46:56;7.96;97.15
75010;DHT22;63564;46.840;18.336;2023-04-15T17:49:57;7.90;97.92
75010;DHT22;63564;46.840;18.336;2023-04-15T17:52:57;7.83;98.06
75010;DHT22;63564;46.840;18.336;2023-04-15T17:55:58;7.80;98.25
75010;DHT22;63564;46.840;18.336;2023-04-15T17:58:59;7.85;97.57
75010;DHT22;63564;46.840;18.336;2023-04-15T18:02:01;7.80;97.71
75010;DHT22;63564;46.840;18.336;2023-04-15T18:05:03;7.76;97.89
75010;DHT22;63564;46.840;18.336;2023-04-15T18:08:08;7.91;97.30
75010;DHT22;63564;46.840;18.336;2023-04-15T18:11:08;8.03;96.20
75010;DHT22;63564;46.840;18.336;2023-04-15T18:14:12;8.01;95.63
75010;DHT22;63564;46.840;18.336;2023-04-15T18:17:13;7.98;96.39
75010;DHT22;63564;46.840;18.336;2023-04-15T18:20:14;7.94;96.96
75010;DHT22;63564;46.840;18.336;2023-04-15T18:23:15;7.98;96.94
75010;DHT22;63564;46.840;18.336;2023-04-15T18:26:17;7.96;96.97
75010;DHT22;63564;46.840;18.336;2023-04-15T18:29:18;7.89;98.02
75010;DHT22;63564;46.840;18.336;2023-04-15T18:32:18;7.89;98.31
75010;DHT22;63564;46.840;18.336;2023-04-15T18:35:19;7.96;97.03
75010;DHT22;63564;46.840;18.336;2023-04-15T18:38:20;7.94;97.15
75010;DHT22;63564;46.840;18.336;2023-04-15T18:41:21;7.97;97.45
75010;DHT22;63564;46.840;18.336;2023-04-15T18:44:22;7.97;97.16
75010;DHT22;63564;46.840;18.336;2023-04-15T18:47:24;7.94;97.48
75010;DHT22;63564;46.840;18.336;2023-04-15T18:50:25;7.94;97.29
75010;DHT22;63564;46.840;18.336;2023-04-15T18:53:25;7.96;97.36
75010;DHT22;63564;46.840;18.336;2023-04-15T18:56:27;7.97;97.16
75010;DHT22;63564;46.840;18.336;2023-04-15T18:59:27;8.01;97.35
75010;DHT22;63564;46.840;18.336;2023-04-15T19:02:28;7.68;98.78
75010;DHT22;63564;46.840;18.336;2023-04-15T19:05:28;7.55;99.29